createdAt,value
2018-06-20T00:00:49.349Z,19.10
2018-06-20T00:05:53.045Z,19.10
2018-06-20T00:10:57.837Z,19.20
2018-06-20T00:16:01.768Z,19.20
2018-06-20T00:21:06.341Z,19.30
2018-06-20T00:26:12.961Z,19.40
2018-06-20T00:31:17.670Z,19.50
2018-06-20T00:36:24.268Z,19.50
2018-06-20T00:41:28.700Z,19.40
2018-06-20T00:46:32.589Z,19.50
2018-06-20T00:51:36.150Z,19.60
2018-06-20T00:56:40.759Z,19.70
2018-06-20T01:01:44.440Z,19.70
2018-06-20T01:06:48.134Z,19.70
2018-06-20T01:11:51.798Z,19.40
2018-06-20T01:16:57.725Z,19.50
2018-06-20T01:22:02.155Z,19.60
2018-06-20T01:27:08.435Z,19.80
2018-06-20T01:32:17.885Z,19.90
2018-06-20T01:37:21.528Z,20.00
2018-06-20T01:42:25.262Z,20.10
2018-06-20T01:53:09.986Z,19.90
2018-06-20T01:58:15.932Z,19.80
2018-06-20T02:03:19.543Z,19.80
2018-06-20T02:08:23.159Z,19.70
2018-06-20T02:13:26.710Z,19.80
2018-06-20T02:18:30.201Z,19.90
2018-06-20T02:23:33.742Z,19.80
2018-06-20T02:28:37.375Z,19.90
2018-06-20T02:33:40.972Z,20.00
2018-06-20T02:38:44.590Z,20.00
2018-06-20T02:43:50.169Z,19.90
2018-06-20T02:48:54.047Z,20.00
2018-06-20T02:53:57.707Z,19.90
2018-06-20T02:59:01.233Z,19.90
2018-06-20T03:04:04.659Z,19.90
2018-06-20T03:09:14.648Z,19.90
2018-06-20T03:14:18.525Z,19.80
2018-06-20T03:19:22.344Z,19.70
2018-06-20T03:24:26.859Z,19.70
2018-06-20T03:29:30.383Z,19.60
2018-06-20T03:34:33.949Z,19.50
2018-06-20T03:39:37.667Z,19.50
2018-06-20T03:44:41.173Z,19.50
2018-06-20T03:49:44.702Z,19.60
2018-06-20T03:54:49.370Z,19.70
2018-06-20T03:59:52.998Z,19.80
2018-06-20T04:04:56.388Z,19.80
2018-06-20T04:10:00.180Z,19.90
2018-06-20T04:15:11.101Z,19.70
2018-06-20T04:25:55.229Z,19.90
2018-06-20T04:36:40.098Z,20.30
2018-06-20T04:41:44.606Z,20.40
2018-06-20T04:46:48.358Z,20.70
2018-06-20T04:51:52.131Z,20.80
2018-06-20T04:56:56.581Z,21.00
2018-06-20T05:02:01.049Z,21.20
2018-06-20T05:07:04.605Z,21.50
2018-06-20T05:12:08.122Z,21.70
2018-06-20T05:17:12.172Z,21.80
2018-06-20T05:22:23.408Z,21.80
2018-06-20T05:27:28.126Z,21.80
2018-06-20T05:32:31.585Z,21.60
2018-06-20T05:37:35.127Z,21.50
2018-06-20T05:42:38.642Z,21.50
2018-06-20T05:47:42.200Z,21.30
2018-06-20T05:52:45.893Z,21.50
2018-06-20T05:57:49.463Z,21.50
2018-06-20T06:02:53.033Z,21.50
2018-06-20T06:07:59.504Z,21.60
2018-06-20T06:13:03.113Z,21.70
2018-06-20T06:18:09.852Z,22.00
2018-06-20T06:23:33.951Z,22.00
2018-06-20T06:28:37.695Z,22.10
2018-06-20T06:33:44.554Z,22.50
2018-06-20T06:38:48.331Z,22.70
2018-06-20T06:43:58.865Z,22.70
2018-06-20T06:54:44.197Z,23.10
2018-06-20T06:59:51.840Z,23.30
2018-06-20T07:16:12.053Z,24.60
2018-06-20T07:21:16.217Z,25.00
2018-06-20T07:26:22.254Z,25.30
2018-06-20T07:31:29.027Z,25.80
2018-06-20T07:36:34.864Z,26.10
2018-06-20T07:41:38.577Z,26.40
2018-06-20T07:46:42.242Z,26.60
2018-06-20T07:51:47.330Z,26.60
2018-06-20T07:56:51.801Z,26.80
2018-06-20T08:02:11.895Z,26.80
2018-06-20T08:07:23.124Z,27.00
2018-06-20T08:12:35.836Z,27.00
2018-06-20T08:17:44.636Z,27.50
2018-06-20T08:22:49.542Z,27.70
2018-06-20T08:27:53.371Z,27.70
2018-06-20T08:32:57.157Z,28.00
2018-06-20T08:38:01.064Z,28.10
2018-06-20T08:43:04.833Z,28.10
2018-06-20T08:48:09.690Z,28.60
2018-06-20T08:53:14.230Z,29.10
2018-06-20T08:58:18.662Z,29.50
2018-06-20T09:03:25.097Z,29.50
2018-06-20T09:08:35.047Z,29.20
2018-06-20T09:13:45.505Z,29.30
2018-06-20T09:18:54.672Z,29.60
2018-06-20T09:23:59.715Z,29.70
2018-06-20T09:29:09.503Z,30.00
2018-06-20T09:34:19.607Z,30.30
2018-06-20T09:50:44.952Z,30.30
2018-06-20T09:55:54.964Z,30.50
2018-06-20T10:01:03.981Z,30.90
2018-06-20T10:06:12.790Z,31.50
2018-06-20T10:11:22.895Z,31.80
2018-06-20T10:16:27.130Z,32.00
2018-06-20T10:21:32.818Z,32.20
2018-06-20T10:26:36.412Z,32.50
2018-06-20T10:31:41.013Z,32.20
2018-06-20T10:36:44.748Z,32.60
2018-06-20T10:41:48.498Z,33.00
2018-06-20T10:46:57.378Z,32.70
2018-06-20T10:52:00.992Z,32.60
2018-06-20T10:57:14.899Z,32.50
2018-06-20T11:02:36.332Z,32.50
2018-06-20T11:24:31.201Z,34.20
2018-06-20T11:29:37.748Z,34.20
2018-06-20T11:34:44.942Z,34.10
2018-06-20T11:39:52.760Z,33.50
2018-06-20T11:44:56.791Z,33.30
2018-06-20T12:07:01.550Z,34.50
2018-06-20T12:12:18.009Z,34.60
2018-06-20T12:17:27.794Z,34.30
2018-06-20T12:22:38.589Z,33.90
2018-06-20T12:27:48.205Z,33.60
2018-06-20T12:32:57.243Z,34.10
2018-06-20T12:38:07.052Z,34.30
2018-06-20T12:45:26.397Z,34.80
2018-06-20T12:50:31.038Z,35.40
2018-06-20T12:55:35.037Z,35.30
2018-06-20T13:00:39.923Z,35.30
2018-06-20T13:05:44.024Z,35.10
2018-06-20T13:10:54.239Z,35.30
2018-06-20T13:15:59.936Z,35.90
2018-06-20T13:21:03.735Z,36.10
2018-06-20T13:26:07.294Z,36.20
2018-06-20T13:31:16.142Z,36.40
2018-06-20T13:36:27.044Z,35.70
2018-06-20T13:41:35.820Z,35.70
2018-06-20T13:46:48.237Z,36.00
2018-06-20T13:51:51.791Z,36.20
2018-06-20T13:56:56.142Z,36.20
2018-06-20T14:01:59.843Z,36.10
2018-06-20T14:07:03.406Z,36.00
2018-06-20T14:12:06.989Z,36.50
2018-06-20T14:17:14.073Z,36.70
2018-06-20T14:22:18.219Z,36.50
2018-06-20T14:27:22.686Z,36.30
2018-06-20T14:32:31.662Z,36.70
2018-06-20T14:37:40.516Z,36.90
2018-06-20T14:42:49.406Z,36.80
2018-06-20T14:47:54.899Z,36.60
2018-06-20T14:52:58.637Z,36.70
2018-06-20T14:58:02.543Z,36.60
2018-06-20T15:03:08.552Z,35.10
2018-06-20T15:08:13.229Z,35.60
2018-06-20T15:13:19.287Z,36.10
2018-06-20T15:18:22.914Z,36.30
2018-06-20T15:23:26.529Z,36.50
2018-06-20T15:28:36.605Z,36.30
2018-06-20T15:33:46.520Z,36.10
2018-06-20T15:38:50.255Z,36.30
2018-06-20T15:43:53.956Z,36.20
2018-06-20T15:48:57.672Z,35.90
2018-06-20T15:54:01.269Z,35.80
2018-06-20T15:59:05.316Z,35.50
2018-06-20T16:04:09.524Z,35.30
2018-06-20T16:09:19.227Z,35.00
2018-06-20T16:14:23.870Z,35.40
2018-06-20T16:19:32.902Z,35.40
2018-06-20T16:24:41.758Z,35.10
2018-06-20T16:29:50.569Z,34.40
2018-06-20T16:34:55.573Z,34.90
2018-06-20T16:40:00.865Z,35.20
2018-06-20T16:45:04.537Z,35.10
2018-06-20T16:50:08.176Z,35.50
2018-06-20T16:55:11.632Z,35.80
2018-06-20T17:00:15.140Z,36.00
2018-06-20T17:05:18.724Z,36.50
2018-06-20T17:10:23.291Z,37.20
2018-06-20T17:15:32.017Z,38.00
2018-06-20T17:20:41.784Z,38.50
2018-06-20T17:25:46.475Z,39.40
2018-06-20T17:36:22.832Z,40.60
2018-06-20T17:41:26.427Z,41.30
2018-06-20T17:46:31.024Z,41.90
2018-06-20T17:51:34.884Z,42.20
2018-06-20T17:56:39.316Z,42.70
2018-06-20T18:01:42.676Z,42.40
2018-06-20T18:06:51.425Z,42.50
2018-06-20T18:12:00.112Z,42.50
2018-06-20T18:17:03.702Z,42.70
2018-06-20T18:22:07.074Z,42.60
2018-06-20T18:32:30.707Z,40.70
2018-06-20T18:37:35.332Z,38.20
2018-06-20T18:42:38.884Z,36.00
2018-06-20T18:47:47.711Z,34.10
2018-06-20T18:52:51.285Z,32.80
2018-06-20T18:58:00.244Z,31.60
2018-06-20T19:03:09.123Z,30.80
2018-06-20T19:08:17.918Z,30.00
2018-06-20T19:13:26.122Z,29.30
2018-06-20T19:18:32.989Z,28.70
2018-06-20T19:23:39.695Z,28.30
2018-06-20T19:34:16.504Z,27.50
2018-06-20T19:39:32.993Z,27.10
2018-06-20T20:39:52.910Z,25.20
2018-06-20T20:45:02.890Z,23.90
2018-06-20T21:25:14.218Z,23.00
2018-06-20T21:30:33.330Z,22.80
2018-06-20T21:42:32.848Z,22.70
2018-06-20T21:47:43.035Z,22.40
2018-06-20T21:52:57.269Z,22.30
2018-06-20T21:58:13.591Z,22.30
2018-06-20T22:08:44.149Z,22.40
2018-06-20T22:13:55.403Z,22.30
2018-06-20T22:19:07.098Z,22.00
2018-06-20T22:24:22.110Z,21.90
2018-06-20T22:29:42.052Z,21.90
2018-06-20T22:34:49.545Z,21.50
2018-06-20T22:39:55.049Z,21.40
2018-06-20T22:45:02.565Z,21.30
2018-06-20T22:50:11.856Z,21.10
2018-06-20T22:55:31.045Z,20.90
2018-06-20T23:00:41.099Z,20.80
2018-06-20T23:11:36.989Z,20.60
2018-06-20T23:16:51.739Z,20.50
2018-06-20T23:21:58.578Z,20.50
2018-06-20T23:32:51.669Z,20.50
2018-06-20T23:38:04.817Z,20.60
2018-06-20T23:48:43.217Z,20.70
2018-06-20T23:53:46.758Z,20.70
2018-06-20T23:58:50.421Z,20.40
